createdAt,value
2019-03-02T00:01:37.301Z,8.70
2019-03-02T00:04:16.863Z,8.70
2019-03-02T00:07:08.032Z,8.70
2019-03-02T00:09:55.283Z,8.60
2019-03-02T00:12:43.738Z,8.60
2019-03-02T00:15:32.251Z,8.60
2019-03-02T00:18:20.712Z,8.60
2019-03-02T00:21:08.935Z,8.50
2019-03-02T00:23:57.163Z,8.60
2019-03-02T00:26:38.207Z,8.50
2019-03-02T00:29:18.826Z,8.40
2019-03-02T00:31:59.663Z,8.40
2019-03-02T00:34:40.700Z,8.30
2019-03-02T00:37:21.693Z,8.30
2019-03-02T00:40:02.119Z,8.20
2019-03-02T00:42:31.250Z,8.20
2019-03-02T00:45:19.746Z,8.20
2019-03-02T00:48:11.176Z,8.20
2019-03-02T00:50:57.908Z,8.20
2019-03-02T00:53:46.383Z,8.10
2019-03-02T00:56:35.479Z,8.10
2019-03-02T00:59:23.715Z,8.10
2019-03-02T01:02:12.219Z,8.20
2019-03-02T01:05:01.823Z,8.20
2019-03-02T01:07:42.900Z,8.20
2019-03-02T01:10:24.140Z,8.10
2019-03-02T01:13:04.671Z,8.20
2019-03-02T01:15:46.071Z,8.20
2019-03-02T01:18:27.089Z,8.10
2019-03-02T01:20:56.235Z,8.10
2019-03-02T01:23:44.435Z,8.00
2019-03-02T01:26:32.705Z,8.00
2019-03-02T01:29:21.221Z,8.00
2019-03-02T01:32:12.658Z,8.00
2019-03-02T01:34:59.390Z,7.90
2019-03-02T01:37:47.601Z,8.00
2019-03-02T01:40:37.865Z,7.90
2019-03-02T01:43:25.759Z,7.90
2019-03-02T01:46:14.236Z,8.00
2019-03-02T01:49:02.474Z,7.90
2019-03-02T01:51:50.763Z,7.90
2019-03-02T01:54:38.976Z,7.80
2019-03-02T01:57:27.188Z,7.80
2019-03-02T02:03:13.018Z,7.70
2019-03-02T02:06:03.739Z,7.80
2019-03-02T02:08:45.539Z,7.80
2019-03-02T02:11:18.080Z,7.80
2019-03-02T02:14:04.715Z,7.80
2019-03-02T02:16:52.964Z,7.90
2019-03-02T02:19:41.174Z,7.80
2019-03-02T02:22:29.402Z,7.90
2019-03-02T02:25:17.874Z,7.90
2019-03-02T02:28:06.080Z,7.90
2019-03-02T02:30:54.312Z,7.80
2019-03-02T02:33:44.512Z,7.80
2019-03-02T02:36:32.803Z,7.80
2019-03-02T02:39:21.019Z,7.80
2019-03-02T02:42:09.275Z,7.80
2019-03-02T02:44:50.391Z,7.80
2019-03-02T02:47:31.040Z,7.90
2019-03-02T02:50:11.993Z,7.90
2019-03-02T02:52:53.322Z,7.80
2019-03-02T02:55:36.069Z,7.80
2019-03-02T02:58:17.591Z,7.80
2019-03-02T03:00:59.732Z,7.90
2019-03-02T03:03:40.679Z,8.00
2019-03-02T03:06:21.372Z,7.90
2019-03-02T03:09:05.198Z,7.90
2019-03-02T03:11:45.740Z,7.90
2019-03-02T03:14:25.774Z,8.00
2019-03-02T03:17:14.366Z,8.10
2019-03-02T03:19:43.510Z,7.90
2019-03-02T03:22:32.081Z,8.00
2019-03-02T03:25:20.286Z,8.10
2019-03-02T03:28:08.501Z,8.10
2019-03-02T03:30:56.720Z,8.10
2019-03-02T03:33:47.291Z,8.10
2019-03-02T03:36:35.521Z,8.20
2019-03-02T03:39:25.688Z,8.20
2019-03-02T03:47:52.768Z,8.30
2019-03-02T03:50:40.977Z,8.10
2019-03-02T03:53:26.389Z,8.10
2019-03-02T03:56:05.617Z,8.20
2019-03-02T03:58:46.427Z,8.10
2019-03-02T04:01:27.240Z,8.00
2019-03-02T04:04:08.647Z,8.00
2019-03-02T04:06:49.990Z,8.00
2019-03-02T04:09:30.927Z,7.90
2019-03-02T04:12:11.934Z,7.90
2019-03-02T04:14:56.822Z,7.90
2019-03-02T04:17:39.001Z,7.90
2019-03-02T04:20:18.813Z,7.80
2019-03-02T04:22:59.647Z,7.80
2019-03-02T04:25:40.707Z,7.90
2019-03-02T04:28:21.919Z,7.80
2019-03-02T04:31:04.756Z,7.80
2019-03-02T04:33:45.440Z,7.80
2019-03-02T04:36:26.358Z,7.70
2019-03-02T04:39:09.709Z,7.80
2019-03-02T04:41:50.055Z,7.70
2019-03-02T04:44:30.940Z,7.70
2019-03-02T04:47:11.479Z,7.70
2019-03-02T04:49:40.594Z,7.70
2019-03-02T04:52:29.088Z,7.60
2019-03-02T04:55:17.304Z,7.60
2019-03-02T04:58:08.586Z,7.60
2019-03-02T05:00:55.715Z,7.60
2019-03-02T05:03:44.011Z,7.50
2019-03-02T05:06:32.207Z,7.50
2019-03-02T05:09:20.703Z,7.50
2019-03-02T05:12:11.549Z,7.50
2019-03-02T05:14:59.091Z,7.60
2019-03-02T05:17:28.255Z,7.50
2019-03-02T05:20:16.452Z,7.60
2019-03-02T05:23:04.975Z,7.60
2019-03-02T05:25:54.591Z,7.70
2019-03-02T05:28:44.204Z,7.60
2019-03-02T05:31:33.030Z,7.60
2019-03-02T05:34:04.573Z,7.60
2019-03-02T05:36:33.271Z,7.60
2019-03-02T05:39:03.022Z,7.50
2019-03-02T05:41:35.684Z,7.50
2019-03-02T05:44:03.515Z,7.50
2019-03-02T05:46:32.959Z,7.50
2019-03-02T05:49:02.068Z,7.60
2019-03-02T05:51:31.167Z,7.60
2019-03-02T05:54:02.681Z,7.60
2019-03-02T05:56:31.392Z,7.60
2019-03-02T05:59:00.511Z,7.50
2019-03-02T06:01:30.249Z,7.50
2019-03-02T06:03:59.388Z,7.60
2019-03-02T06:06:28.795Z,7.50
2019-03-02T06:08:57.890Z,7.50
2019-03-02T06:11:27.429Z,7.60
2019-03-02T06:13:56.569Z,7.50
2019-03-02T06:16:25.670Z,7.50
2019-03-02T06:18:54.822Z,7.50
2019-03-02T06:21:23.944Z,7.50
2019-03-02T06:23:53.350Z,7.40
2019-03-02T06:26:22.435Z,7.20
2019-03-02T06:28:54.612Z,7.00
2019-03-02T06:31:22.394Z,7.00
2019-03-02T06:33:51.527Z,7.10
2019-03-02T06:36:20.627Z,7.10
2019-03-02T06:38:49.750Z,7.10
2019-03-02T06:41:18.857Z,7.00
2019-03-02T06:43:47.987Z,7.10
2019-03-02T06:46:19.845Z,7.10
2019-03-02T06:48:48.293Z,7.10
2019-03-02T06:51:17.428Z,7.10
2019-03-02T06:53:46.843Z,7.00
2019-03-02T06:56:16.296Z,7.10
2019-03-02T06:58:45.790Z,7.10
2019-03-02T07:01:15.275Z,7.10
2019-03-02T07:03:45.902Z,7.10
2019-03-02T07:06:16.621Z,7.20
2019-03-02T07:08:46.209Z,7.20
2019-03-02T07:11:15.416Z,7.20
2019-03-02T07:13:44.538Z,7.30
2019-03-02T07:16:16.507Z,7.30
2019-03-02T07:18:57.003Z,7.30
2019-03-02T07:21:26.172Z,7.40
2019-03-02T07:23:55.259Z,7.50
2019-03-02T07:26:24.801Z,7.50
2019-03-02T07:28:53.896Z,7.60
2019-03-02T07:31:23.578Z,7.70
2019-03-02T07:33:53.709Z,7.70
2019-03-02T07:36:22.832Z,7.70
2019-03-02T07:38:56.516Z,7.60
2019-03-02T07:41:23.827Z,7.60
2019-03-02T07:43:53.017Z,7.50
2019-03-02T07:46:22.422Z,7.50
2019-03-02T07:49:13.042Z,7.50
2019-03-02T07:51:42.380Z,7.50
2019-03-02T07:54:11.797Z,7.50
2019-03-02T07:56:40.983Z,7.50
2019-03-02T07:59:10.131Z,7.50
2019-03-02T08:01:39.298Z,7.50
2019-03-02T08:04:08.693Z,7.50
2019-03-02T08:06:37.812Z,7.50
2019-03-02T08:09:07.684Z,7.50
2019-03-02T08:11:36.844Z,7.50
2019-03-02T08:14:08.879Z,7.50
2019-03-02T08:16:37.741Z,7.50
2019-03-02T08:19:08.121Z,7.60
2019-03-02T08:21:37.368Z,7.70
2019-03-02T08:24:06.791Z,7.70
2019-03-02T08:26:36.983Z,7.80
2019-03-02T08:29:06.102Z,7.90
2019-03-02T08:31:35.271Z,7.90
2019-03-02T08:34:05.961Z,7.90
2019-03-02T08:36:36.105Z,7.90
2019-03-02T08:39:06.778Z,7.80
2019-03-02T08:41:37.923Z,7.80
2019-03-02T08:44:07.499Z,7.90
2019-03-02T08:46:36.657Z,7.90
2019-03-02T08:49:06.384Z,7.90
2019-03-02T08:51:36.285Z,7.90
2019-03-02T08:54:05.454Z,8.10
2019-03-02T08:56:35.005Z,8.10
2019-03-02T08:59:04.119Z,8.20
2019-03-02T09:01:33.581Z,8.10
2019-03-02T09:04:03.272Z,8.00
2019-03-02T09:06:34.759Z,8.10
2019-03-02T09:09:04.689Z,8.10
2019-03-02T09:11:34.708Z,8.20
2019-03-02T09:14:03.885Z,8.30
2019-03-02T09:16:33.277Z,8.20
2019-03-02T09:19:02.459Z,8.20
2019-03-02T09:21:32.503Z,8.20
2019-03-02T09:24:01.948Z,8.30
2019-03-02T09:26:31.071Z,8.30
2019-03-02T09:29:00.448Z,8.40
2019-03-02T09:31:29.877Z,8.40
2019-03-02T09:34:01.084Z,8.50
2019-03-02T09:36:31.165Z,8.50
2019-03-02T09:39:00.642Z,8.60
2019-03-02T09:41:29.755Z,8.60
2019-03-02T09:44:00.879Z,8.60
2019-03-02T09:46:30.346Z,8.70
2019-03-02T09:49:00.685Z,8.70
2019-03-02T09:51:30.036Z,8.70
2019-03-02T09:53:59.130Z,8.70
2019-03-02T09:56:28.479Z,8.80
2019-03-02T09:58:58.012Z,8.80
2019-03-02T10:01:28.438Z,8.80
2019-03-02T10:03:58.790Z,8.80
2019-03-02T10:06:28.379Z,8.80
2019-03-02T10:08:57.507Z,8.80
2019-03-02T10:11:26.620Z,8.90
2019-03-02T10:13:55.735Z,8.90
2019-03-02T10:16:25.471Z,9.00
2019-03-02T10:18:54.842Z,9.00
2019-03-02T10:21:23.956Z,9.00
2019-03-02T10:23:53.062Z,8.80
2019-03-02T10:26:22.270Z,8.70
2019-03-02T10:28:51.387Z,8.80
2019-03-02T10:31:20.535Z,8.90
2019-03-02T10:33:49.931Z,8.90
2019-03-02T10:36:19.063Z,8.90
2019-03-02T10:38:48.210Z,8.80
2019-03-02T10:41:20.414Z,8.70
2019-03-02T10:43:48.191Z,8.70
2019-03-02T10:46:17.436Z,8.70
2019-03-02T10:48:47.757Z,8.70
2019-03-02T10:51:17.235Z,8.70
2019-03-02T10:53:46.368Z,8.60
2019-03-02T10:56:15.748Z,8.80
2019-03-02T10:58:44.887Z,8.70
2019-03-02T11:01:14.379Z,8.70
2019-03-02T11:03:43.555Z,8.80
2019-03-02T11:06:22.295Z,8.80
2019-03-02T11:09:22.159Z,8.90
2019-03-02T11:12:02.911Z,9.00
2019-03-02T11:14:51.907Z,8.90
2019-03-02T11:17:49.562Z,9.00
2019-03-02T11:20:58.801Z,9.00
2019-03-02T11:23:54.727Z,9.00
2019-03-02T11:26:32.824Z,9.10
2019-03-02T11:29:25.731Z,9.20
2019-03-02T11:32:20.364Z,9.10
2019-03-02T11:35:02.083Z,9.00
2019-03-02T11:37:37.604Z,9.10
2019-03-02T11:40:12.158Z,9.20
2019-03-02T11:43:24.249Z,9.20
2019-03-02T11:46:16.477Z,9.20
2019-03-02T11:49:14.315Z,9.20
2019-03-02T11:52:12.710Z,9.00
2019-03-02T11:55:30.541Z,8.90
2019-03-02T11:58:23.205Z,8.90
2019-03-02T12:01:11.393Z,8.80
2019-03-02T12:04:18.647Z,8.80
2019-03-02T12:07:25.888Z,8.90
2019-03-02T12:10:33.429Z,9.00
2019-03-02T12:13:40.680Z,9.10
2019-03-02T12:16:47.938Z,9.20
2019-03-02T12:19:55.173Z,9.20
2019-03-02T12:23:02.673Z,9.30
2019-03-02T12:26:11.051Z,9.20
2019-03-02T12:29:19.181Z,9.30
2019-03-02T12:32:11.907Z,9.20
2019-03-02T12:35:19.168Z,9.40
2019-03-02T12:38:21.107Z,9.60
2019-03-02T12:41:28.345Z,10.20
2019-03-02T12:44:35.837Z,10.50
2019-03-02T12:47:43.336Z,10.60
2019-03-02T12:50:50.853Z,10.30
2019-03-02T12:54:00.904Z,10.30
2019-03-02T12:57:08.661Z,9.90
2019-03-02T13:00:16.467Z,10.10
2019-03-02T13:03:27.301Z,10.20
2019-03-02T13:06:35.884Z,10.30
2019-03-02T13:09:41.936Z,10.20
2019-03-02T13:12:49.183Z,10.40
2019-03-02T13:15:56.460Z,10.50
2019-03-02T13:19:03.679Z,10.70
2019-03-02T13:22:10.921Z,10.80
2019-03-02T13:24:59.259Z,10.90
2019-03-02T13:27:56.774Z,11.10
2019-03-02T13:30:58.668Z,11.10
2019-03-02T13:34:08.184Z,11.20
2019-03-02T13:37:17.010Z,11.20
2019-03-02T13:40:26.321Z,11.20
2019-03-02T13:43:33.304Z,11.20
2019-03-02T13:46:40.544Z,11.10
2019-03-02T13:49:47.791Z,11.10
2019-03-02T13:52:55.271Z,11.00
2019-03-02T13:55:52.195Z,11.10
2019-03-02T13:58:59.732Z,11.20
2019-03-02T14:02:07.233Z,11.40
2019-03-02T14:05:14.452Z,11.40
2019-03-02T14:08:21.700Z,11.50
2019-03-02T14:11:28.917Z,11.60
2019-03-02T14:14:36.424Z,11.60
2019-03-02T14:17:43.644Z,11.50
2019-03-02T14:20:51.169Z,11.50
2019-03-02T14:23:58.649Z,11.60
2019-03-02T14:26:53.944Z,11.70
2019-03-02T14:29:42.970Z,11.60
2019-03-02T14:32:44.443Z,11.50
2019-03-02T14:35:44.184Z,11.50
2019-03-02T14:38:44.511Z,11.60
2019-03-02T14:41:50.109Z,11.70
2019-03-02T14:44:49.997Z,11.70
2019-03-02T14:47:39.652Z,11.80
2019-03-02T14:50:40.313Z,11.70
2019-03-02T14:53:42.017Z,11.50
2019-03-02T14:56:29.434Z,11.30
2019-03-02T14:59:17.808Z,11.30
2019-03-02T15:02:25.325Z,11.20
2019-03-02T15:05:32.542Z,11.30
2019-03-02T15:08:40.059Z,11.30
2019-03-02T15:11:47.343Z,11.40
2019-03-02T15:14:54.616Z,11.30
2019-03-02T15:18:01.837Z,11.30
2019-03-02T15:21:11.510Z,11.40
2019-03-02T15:24:20.340Z,11.40
2019-03-02T15:27:27.316Z,11.40
2019-03-02T15:30:34.587Z,11.40
2019-03-02T15:33:41.810Z,11.50
2019-03-02T15:36:49.220Z,11.50
2019-03-02T15:39:56.523Z,11.50
2019-03-02T15:42:59.761Z,11.50
2019-03-02T15:45:59.994Z,11.60
2019-03-02T15:48:55.700Z,11.60
2019-03-02T15:51:55.675Z,11.60
2019-03-02T15:54:56.004Z,11.60
2019-03-02T15:57:55.583Z,11.60
2019-03-02T16:00:55.773Z,11.50
2019-03-02T16:03:43.012Z,11.60
2019-03-02T16:06:43.423Z,11.60
2019-03-02T16:09:43.053Z,11.60
2019-03-02T16:12:44.065Z,11.60
2019-03-02T16:15:45.307Z,11.60
2019-03-02T16:18:49.282Z,11.60
2019-03-02T16:21:53.185Z,11.50
2019-03-02T16:24:52.543Z,11.50
2019-03-02T16:27:52.779Z,11.50
2019-03-02T16:30:52.373Z,11.40
2019-03-02T16:33:51.824Z,11.40
2019-03-02T16:36:52.187Z,11.50
2019-03-02T16:39:52.356Z,11.50
2019-03-02T16:42:52.759Z,11.50
2019-03-02T16:45:52.240Z,11.60
2019-03-02T16:48:46.536Z,11.50
2019-03-02T16:51:34.521Z,11.50
2019-03-02T16:54:22.703Z,11.50
2019-03-02T16:57:30.636Z,11.50
2019-03-02T17:03:46.437Z,11.50
2019-03-02T17:06:49.564Z,11.40
2019-03-02T17:09:39.704Z,11.40
2019-03-02T17:12:39.632Z,11.30
2019-03-02T17:15:39.866Z,11.30
2019-03-02T17:18:43.005Z,11.20
2019-03-02T17:21:38.224Z,11.10
2019-03-02T17:24:37.787Z,11.10
2019-03-02T17:27:37.258Z,11.10
2019-03-02T17:33:34.328Z,11.10
2019-03-02T17:36:41.643Z,11.10
2019-03-02T17:39:41.643Z,11.00
2019-03-02T17:42:35.924Z,11.00
2019-03-02T17:45:36.638Z,11.10
2019-03-02T17:48:37.015Z,11.10
2019-03-02T17:51:27.668Z,11.00
2019-03-02T17:54:27.905Z,11.00
2019-03-02T17:57:27.935Z,11.00
2019-03-02T18:00:22.132Z,10.90
2019-03-02T18:03:28.625Z,10.90
2019-03-02T18:06:23.751Z,10.90
2019-03-02T18:09:24.082Z,10.90
2019-03-02T18:12:11.644Z,10.90
2019-03-02T18:14:55.036Z,10.90
2019-03-02T18:17:43.217Z,10.90
2019-03-02T18:20:12.334Z,10.90
2019-03-02T18:22:43.083Z,10.90
2019-03-02T18:25:13.397Z,10.80
2019-03-02T18:27:43.136Z,10.80
2019-03-02T18:30:15.439Z,10.80
2019-03-02T18:32:45.896Z,10.80
2019-03-02T18:35:15.634Z,10.70
2019-03-02T18:37:45.128Z,10.70
2019-03-02T18:40:14.945Z,10.70
2019-03-02T18:42:44.108Z,10.70
2019-03-02T18:45:13.935Z,10.60
2019-03-02T18:47:43.414Z,10.60
2019-03-02T18:50:33.311Z,10.70
2019-03-02T18:53:06.200Z,10.70
2019-03-02T18:55:35.866Z,10.80
2019-03-02T18:58:06.618Z,10.70
2019-03-02T19:00:38.698Z,10.70
2019-03-02T19:03:08.689Z,10.70
2019-03-02T19:05:37.964Z,10.70
2019-03-02T19:08:07.313Z,10.70
2019-03-02T19:10:39.709Z,10.70
2019-03-02T19:13:08.398Z,10.70
2019-03-02T19:15:38.921Z,10.70
2019-03-02T19:18:08.327Z,10.70
2019-03-02T19:20:37.891Z,10.80
2019-03-02T19:23:08.267Z,10.70
2019-03-02T19:25:37.411Z,10.60
2019-03-02T19:28:06.789Z,10.60
2019-03-02T19:30:36.864Z,10.60
2019-03-02T19:33:06.242Z,10.60
2019-03-02T19:35:35.439Z,10.50
2019-03-02T19:38:05.874Z,10.50
2019-03-02T19:40:35.574Z,10.40
2019-03-02T19:43:05.591Z,10.40
2019-03-02T19:45:35.036Z,10.30
2019-03-02T19:48:04.584Z,10.30
2019-03-02T19:50:34.141Z,10.30
2019-03-02T19:53:03.775Z,10.20
2019-03-02T19:55:32.925Z,10.20
2019-03-02T19:58:02.561Z,10.30
2019-03-02T20:00:32.337Z,10.30
2019-03-02T20:03:01.422Z,10.20
2019-03-02T20:05:31.128Z,10.20
2019-03-02T20:08:00.215Z,10.30
2019-03-02T20:10:29.803Z,10.30
2019-03-02T20:12:58.913Z,10.20
2019-03-02T20:15:28.171Z,10.30
2019-03-02T20:17:57.384Z,10.20
2019-03-02T20:20:26.891Z,10.20
2019-03-02T20:22:56.252Z,10.20
2019-03-02T20:25:25.428Z,10.10
2019-03-02T20:27:54.643Z,10.10
2019-03-02T20:30:23.744Z,10.10
2019-03-02T20:32:53.510Z,10.10
2019-03-02T20:35:22.975Z,10.10
2019-03-02T20:37:52.553Z,10.10
2019-03-02T20:40:22.164Z,10.10
2019-03-02T20:42:51.389Z,10.20
2019-03-02T20:45:20.915Z,10.10
2019-03-02T20:47:50.168Z,10.10
2019-03-02T20:50:19.263Z,10.10
2019-03-02T20:52:48.545Z,10.10
2019-03-02T20:55:17.947Z,10.10
2019-03-02T20:57:47.082Z,10.10
2019-03-02T21:00:19.656Z,10.10
2019-03-02T21:02:49.423Z,10.20
2019-03-02T21:05:18.527Z,10.20
2019-03-02T21:07:47.714Z,10.10
2019-03-02T21:10:17.960Z,10.10
2019-03-02T21:12:47.203Z,10.10
2019-03-02T21:15:19.144Z,10.10
2019-03-02T21:17:48.568Z,10.20
2019-03-02T21:20:20.063Z,10.20
2019-03-02T21:22:49.215Z,10.20
2019-03-02T21:25:18.319Z,10.10
2019-03-02T21:27:47.463Z,10.10
2019-03-02T21:30:16.828Z,10.10
2019-03-02T21:32:45.959Z,10.00
2019-03-02T21:35:15.629Z,10.00
2019-03-02T21:37:45.093Z,10.10
2019-03-02T21:40:19.198Z,10.10
2019-03-02T21:42:48.592Z,10.00
2019-03-02T21:45:19.392Z,9.90
2019-03-02T21:47:50.561Z,9.90
2019-03-02T21:50:24.299Z,10.00
2019-03-02T21:52:54.629Z,10.00
2019-03-02T21:55:25.813Z,9.90
2019-03-02T21:57:55.476Z,9.90
2019-03-02T22:00:26.328Z,9.90
2019-03-02T22:02:57.693Z,10.00
2019-03-02T22:05:27.959Z,10.00
2019-03-02T22:07:57.648Z,10.00
2019-03-02T22:10:35.384Z,10.00
2019-03-02T22:13:07.768Z,10.00
2019-03-02T22:15:37.132Z,10.10
2019-03-02T22:18:06.354Z,10.00
2019-03-02T22:20:36.136Z,10.10
2019-03-02T22:23:05.262Z,10.10
2019-03-02T22:25:36.119Z,10.00
2019-03-02T22:28:05.668Z,10.00
2019-03-02T22:30:34.804Z,10.00
2019-03-02T22:33:03.940Z,10.00
2019-03-02T22:35:34.157Z,10.00
2019-03-02T22:38:03.512Z,9.90
2019-03-02T22:40:32.673Z,9.90
2019-03-02T22:43:01.849Z,9.90
2019-03-02T22:45:31.317Z,10.00
2019-03-02T22:48:00.451Z,10.00
2019-03-02T22:50:30.379Z,9.90
2019-03-02T22:53:18.700Z,9.90
2019-03-02T22:55:47.878Z,9.90
2019-03-02T22:58:17.257Z,9.90
2019-03-02T23:01:18.571Z,9.90
2019-03-02T23:03:46.115Z,9.90
2019-03-02T23:06:15.287Z,9.90
2019-03-02T23:08:44.502Z,9.90
2019-03-02T23:11:13.951Z,9.90
2019-03-02T23:13:43.355Z,9.90
2019-03-02T23:16:12.456Z,9.90
2019-03-02T23:18:41.592Z,9.80
2019-03-02T23:21:11.051Z,9.90
2019-03-02T23:23:40.456Z,9.90
2019-03-02T23:26:09.855Z,10.00
2019-03-02T23:28:40.162Z,10.00
2019-03-02T23:31:09.461Z,9.90
2019-03-02T23:33:38.839Z,10.00
2019-03-02T23:36:07.939Z,10.00
2019-03-02T23:38:37.351Z,10.00
2019-03-02T23:41:08.231Z,10.00
2019-03-02T23:43:37.632Z,10.00
2019-03-02T23:46:06.760Z,10.00
2019-03-02T23:48:35.905Z,9.90
2019-03-02T23:51:05.261Z,9.90
2019-03-02T23:53:34.375Z,9.90
2019-03-02T23:56:03.482Z,9.90
2019-03-02T23:58:32.606Z,9.80
